createdAt,value
2019-01-16T00:01:40.175Z,11.40
2019-01-16T00:04:07.988Z,10.30
2019-01-16T00:06:38.551Z,10.50
2019-01-16T00:09:19.793Z,10.80
2019-01-16T00:12:05.528Z,10.50
2019-01-16T00:14:48.651Z,10.53
2019-01-16T00:17:25.539Z,10.17
2019-01-16T00:20:05.414Z,10.30
2019-01-16T00:22:42.340Z,10.73
2019-01-16T00:25:10.141Z,11.33
2019-01-16T00:27:54.910Z,11.07
2019-01-16T00:30:25.726Z,10.80
2019-01-16T00:33:05.458Z,10.97
2019-01-16T00:35:51.366Z,10.63
2019-01-16T00:38:34.228Z,11.20
2019-01-16T00:41:02.027Z,10.87
2019-01-16T00:43:32.515Z,11.37
2019-01-16T00:46:03.299Z,10.23
2019-01-16T00:48:40.266Z,10.47
2019-01-16T00:51:24.974Z,10.20
2019-01-16T00:53:55.489Z,9.53
2019-01-16T00:56:23.280Z,9.43
2019-01-16T00:59:00.461Z,9.70
2019-01-16T01:01:28.367Z,10.30
2019-01-16T01:04:01.919Z,10.13
2019-01-16T01:06:32.484Z,10.27
2019-01-16T01:09:03.012Z,9.77
2019-01-16T01:11:39.686Z,10.10
2019-01-16T01:14:14.102Z,10.30
2019-01-16T01:16:41.902Z,9.47
2019-01-16T01:19:24.995Z,9.57
2019-01-16T01:22:07.817Z,9.87
2019-01-16T01:24:41.375Z,8.93
2019-01-16T01:27:15.134Z,9.53
2019-01-16T01:29:42.889Z,8.77
2019-01-16T01:32:10.682Z,9.00
2019-01-16T01:34:55.339Z,9.83
2019-01-16T01:37:40.051Z,9.30
2019-01-16T01:40:24.857Z,8.90
2019-01-16T01:43:10.715Z,8.83
2019-01-16T01:45:44.367Z,8.83
2019-01-16T01:48:17.912Z,8.23
2019-01-16T01:50:51.532Z,8.93
2019-01-16T01:53:31.363Z,8.43
2019-01-16T01:56:05.003Z,8.50
2019-01-16T01:58:32.769Z,8.47
2019-01-16T02:01:06.304Z,8.43
2019-01-16T02:03:51.038Z,8.50
2019-01-16T02:06:24.771Z,8.37
2019-01-16T02:09:07.615Z,8.47
2019-01-16T02:11:35.458Z,8.30
2019-01-16T02:14:06.237Z,7.87
2019-01-16T02:16:52.639Z,9.07
2019-01-16T02:19:37.332Z,8.07
2019-01-16T02:22:17.215Z,8.37
2019-01-16T02:24:53.930Z,8.20
2019-01-16T02:27:21.722Z,7.70
2019-01-16T02:29:49.527Z,8.43
2019-01-16T02:32:17.310Z,7.93
2019-01-16T02:34:45.189Z,7.90
2019-01-16T02:37:15.936Z,8.47
2019-01-16T02:39:52.533Z,7.60
2019-01-16T02:42:23.024Z,7.20
2019-01-16T02:44:53.538Z,7.40
2019-01-16T02:47:21.318Z,7.23
2019-01-16T02:49:55.097Z,7.03
2019-01-16T02:52:39.762Z,7.60
2019-01-16T02:55:13.313Z,7.43
2019-01-16T02:57:53.245Z,7.40
2019-01-16T03:00:36.150Z,7.20
2019-01-16T03:03:12.914Z,8.20
2019-01-16T03:05:49.938Z,7.90
2019-01-16T03:08:27.061Z,8.57
2019-01-16T03:11:11.499Z,9.00
2019-01-16T03:13:54.618Z,9.47
2019-01-16T03:16:28.356Z,8.83
2019-01-16T03:19:05.952Z,9.03
2019-01-16T03:21:46.000Z,8.60
2019-01-16T03:24:13.796Z,8.83
2019-01-16T03:26:41.553Z,8.37
2019-01-16T03:29:12.278Z,8.40
2019-01-16T03:31:46.161Z,8.87
2019-01-16T03:34:30.561Z,7.93
2019-01-16T03:36:58.686Z,8.30
2019-01-16T03:39:44.799Z,7.20
2019-01-16T03:42:12.595Z,8.17
2019-01-16T03:44:43.373Z,7.67
2019-01-16T03:47:11.161Z,7.90
2019-01-16T03:49:41.670Z,7.50
2019-01-16T03:52:27.847Z,7.83
2019-01-16T03:55:04.629Z,7.20
2019-01-16T03:57:32.440Z,7.80
2019-01-16T04:00:06.282Z,7.90
2019-01-16T04:02:34.084Z,7.40
2019-01-16T04:05:18.578Z,7.90
2019-01-16T04:07:49.123Z,7.47
2019-01-16T04:10:22.906Z,7.80
2019-01-16T04:12:53.391Z,7.77
2019-01-16T04:15:33.195Z,7.17
2019-01-16T04:18:16.077Z,8.00
2019-01-16T04:20:44.569Z,7.63
2019-01-16T04:23:21.308Z,7.90
2019-01-16T04:26:05.878Z,7.93
2019-01-16T04:28:39.774Z,8.03
2019-01-16T04:31:16.813Z,7.50
2019-01-16T04:33:50.855Z,7.57
2019-01-16T04:36:36.599Z,7.60
2019-01-16T04:39:23.532Z,7.83
2019-01-16T04:41:54.062Z,7.87
2019-01-16T04:44:38.637Z,7.70
2019-01-16T04:47:15.226Z,8.00
2019-01-16T04:49:42.971Z,8.33
2019-01-16T04:52:25.832Z,8.27
2019-01-16T04:54:59.644Z,7.67
2019-01-16T04:57:27.458Z,7.60
2019-01-16T05:00:04.494Z,7.83
2019-01-16T05:02:32.358Z,7.80
2019-01-16T05:05:03.302Z,7.67
2019-01-16T05:07:37.230Z,7.30
2019-01-16T05:10:20.341Z,7.57
2019-01-16T05:12:57.098Z,7.40
2019-01-16T05:15:28.063Z,7.60
2019-01-16T05:18:02.048Z,7.23
2019-01-16T05:20:46.479Z,7.50
2019-01-16T05:23:15.054Z,7.00
2019-01-16T05:25:48.880Z,7.10
2019-01-16T05:28:28.633Z,7.30
2019-01-16T05:31:02.256Z,7.07
2019-01-16T05:33:30.026Z,7.23
2019-01-16T05:36:06.845Z,7.33
2019-01-16T05:38:46.897Z,7.47
2019-01-16T05:41:14.787Z,7.43
2019-01-16T05:43:59.353Z,6.83
2019-01-16T05:46:30.140Z,7.40
2019-01-16T05:49:14.902Z,6.80
2019-01-16T05:51:45.647Z,7.27
2019-01-16T05:54:13.433Z,7.10
2019-01-16T05:56:53.509Z,6.87
2019-01-16T05:59:21.308Z,7.03
2019-01-16T06:01:57.967Z,7.53
2019-01-16T06:04:28.967Z,7.33
2019-01-16T06:07:11.814Z,7.60
2019-01-16T06:09:39.608Z,7.47
2019-01-16T06:12:16.618Z,7.33
2019-01-16T06:14:47.486Z,6.70
2019-01-16T06:17:30.323Z,6.93
2019-01-16T06:20:01.374Z,7.43
2019-01-16T06:22:46.112Z,7.60
2019-01-16T06:25:20.294Z,7.43
2019-01-16T06:28:05.001Z,7.63
2019-01-16T06:30:38.880Z,7.93
2019-01-16T06:33:24.722Z,7.93
2019-01-16T06:35:58.515Z,7.77
2019-01-16T06:38:44.804Z,8.30
2019-01-16T06:41:18.317Z,7.53
2019-01-16T06:44:04.444Z,8.13
2019-01-16T06:46:38.307Z,7.60
2019-01-16T06:49:09.059Z,8.50
2019-01-16T06:51:42.601Z,9.13
2019-01-16T06:54:13.363Z,7.97
2019-01-16T06:56:44.039Z,9.10
2019-01-16T06:59:14.540Z,8.83
2019-01-16T07:01:54.209Z,8.73
2019-01-16T07:04:25.480Z,8.37
2019-01-16T07:07:09.894Z,8.70
2019-01-16T07:09:38.092Z,9.30
2019-01-16T07:12:05.904Z,8.93
2019-01-16T07:14:33.684Z,9.13
2019-01-16T07:17:10.539Z,10.63
2019-01-16T07:19:41.039Z,9.33
2019-01-16T07:22:25.321Z,9.53
2019-01-16T07:24:58.886Z,10.00
2019-01-16T07:27:44.344Z,9.30
2019-01-16T07:30:22.503Z,9.90
2019-01-16T07:32:59.647Z,8.93
2019-01-16T07:35:39.499Z,9.27
2019-01-16T07:38:07.293Z,9.07
2019-01-16T07:40:38.031Z,9.10
2019-01-16T07:43:11.666Z,9.07
2019-01-16T07:45:42.162Z,9.23
2019-01-16T07:48:12.697Z,9.40
2019-01-16T07:50:49.273Z,9.03
2019-01-16T07:53:17.065Z,8.77
2019-01-16T07:55:44.875Z,9.30
2019-01-16T07:58:27.894Z,9.67
2019-01-16T08:01:04.669Z,9.67
2019-01-16T08:03:49.312Z,10.50
2019-01-16T08:06:30.034Z,10.23
2019-01-16T08:09:15.935Z,10.80
2019-01-16T08:11:58.810Z,10.37
2019-01-16T08:14:26.622Z,10.73
2019-01-16T08:16:54.419Z,11.37
2019-01-16T08:19:37.430Z,11.23
2019-01-16T08:22:05.237Z,11.30
2019-01-16T08:24:49.566Z,10.80
2019-01-16T08:27:23.315Z,11.70
2019-01-16T08:29:51.608Z,11.73
2019-01-16T08:32:19.421Z,11.53
2019-01-16T08:34:56.477Z,10.97
2019-01-16T08:37:40.836Z,12.30
2019-01-16T08:40:10.306Z,12.60
2019-01-16T08:42:54.579Z,12.67
2019-01-16T08:45:39.187Z,13.23
2019-01-16T08:48:22.027Z,13.30
2019-01-16T08:50:55.859Z,13.50
2019-01-16T08:53:29.480Z,14.00
2019-01-16T08:56:00.460Z,13.67
2019-01-16T08:58:40.339Z,14.30
2019-01-16T09:01:32.387Z,13.70
2019-01-16T09:03:57.257Z,12.50
2019-01-16T09:06:25.140Z,12.43
2019-01-16T09:08:55.906Z,11.30
2019-01-16T09:11:38.722Z,11.40
2019-01-16T09:14:12.794Z,11.57
2019-01-16T09:16:46.105Z,12.10
2019-01-16T09:19:25.885Z,11.33
2019-01-16T09:21:53.686Z,12.20
2019-01-16T09:24:39.744Z,12.43
2019-01-16T09:27:10.493Z,12.27
2019-01-16T09:29:41.379Z,12.00
2019-01-16T09:32:09.436Z,11.03
2019-01-16T09:34:40.158Z,11.60
2019-01-16T09:37:07.948Z,12.70
2019-01-16T09:39:50.834Z,12.37
2019-01-16T09:42:18.629Z,12.23
2019-01-16T09:44:49.427Z,12.37
2019-01-16T09:47:29.169Z,11.67
2019-01-16T09:49:57.043Z,12.50
2019-01-16T09:52:40.204Z,12.23
2019-01-16T09:55:19.985Z,13.00
2019-01-16T09:57:50.535Z,12.27
2019-01-16T10:00:18.392Z,12.67
2019-01-16T10:02:46.186Z,14.43
2019-01-16T10:05:20.236Z,13.73
2019-01-16T10:07:48.105Z,13.67
2019-01-16T10:10:18.866Z,13.40
2019-01-16T10:12:50.013Z,13.53
2019-01-16T10:15:34.291Z,13.20
2019-01-16T10:18:11.005Z,13.63
2019-01-16T10:20:45.857Z,14.83
2019-01-16T10:23:14.617Z,14.87
2019-01-16T10:25:57.406Z,14.43
2019-01-16T10:28:28.377Z,15.63
2019-01-16T10:31:12.812Z,17.23
2019-01-16T10:33:41.244Z,15.47
2019-01-16T10:36:09.037Z,17.50
2019-01-16T10:38:39.648Z,18.07
2019-01-16T10:41:23.900Z,18.00
2019-01-16T10:43:51.709Z,19.63
2019-01-16T10:46:19.482Z,19.70
2019-01-16T10:48:50.276Z,20.10
2019-01-16T10:51:34.917Z,20.60
2019-01-16T10:54:14.572Z,19.97
2019-01-16T10:56:51.182Z,19.50
2019-01-16T10:59:18.956Z,19.27
2019-01-16T11:01:49.517Z,19.27
2019-01-16T11:04:29.138Z,19.17
2019-01-16T11:06:59.877Z,19.10
2019-01-16T11:09:30.682Z,20.70
2019-01-16T11:12:14.972Z,19.80
2019-01-16T11:14:55.141Z,19.47
2019-01-16T11:17:38.032Z,20.43
2019-01-16T11:20:15.762Z,20.10
2019-01-16T11:23:00.153Z,19.47
2019-01-16T11:25:43.349Z,20.53
2019-01-16T11:28:11.148Z,19.20
2019-01-16T11:30:38.929Z,20.20
2019-01-16T11:33:06.743Z,20.70
2019-01-16T11:35:47.846Z,20.00
2019-01-16T11:38:18.354Z,20.97
2019-01-16T11:40:46.117Z,20.27
2019-01-16T11:43:14.008Z,20.30
2019-01-16T11:45:47.990Z,18.73
2019-01-16T11:48:21.551Z,18.50
2019-01-16T11:50:51.884Z,19.13
2019-01-16T11:53:19.627Z,20.47
2019-01-16T11:55:59.497Z,18.77
2019-01-16T11:58:30.280Z,18.47
2019-01-16T12:01:00.813Z,16.47
2019-01-16T12:03:45.281Z,14.50
2019-01-16T12:06:13.180Z,13.70
2019-01-16T12:08:43.608Z,13.90
2019-01-16T12:11:14.369Z,13.40
2019-01-16T12:13:59.087Z,13.90
2019-01-16T12:16:33.122Z,13.90
2019-01-16T12:19:03.608Z,15.37
2019-01-16T12:21:48.156Z,15.30
2019-01-16T12:24:32.622Z,15.03
2019-01-16T12:27:00.397Z,15.23
2019-01-16T12:29:43.489Z,15.77
2019-01-16T12:32:11.275Z,15.87
2019-01-16T12:34:51.370Z,14.90
2019-01-16T12:37:25.421Z,14.67
2019-01-16T12:39:59.503Z,15.07
2019-01-16T12:42:36.232Z,15.43
2019-01-16T12:45:05.846Z,15.90
2019-01-16T12:47:33.651Z,14.63
2019-01-16T12:50:18.573Z,14.53
2019-01-16T12:53:01.562Z,14.77
2019-01-16T12:55:35.425Z,14.97
2019-01-16T12:58:13.340Z,14.03
2019-01-16T13:00:51.280Z,14.90
2019-01-16T13:03:21.977Z,14.67
2019-01-16T13:05:58.734Z,15.17
2019-01-16T13:08:26.500Z,14.53
2019-01-16T13:10:54.289Z,14.57
2019-01-16T13:13:40.466Z,14.87
2019-01-16T13:16:17.073Z,14.87
2019-01-16T13:18:57.089Z,14.60
2019-01-16T13:21:27.589Z,15.77
2019-01-16T13:24:04.646Z,15.40
2019-01-16T13:26:49.385Z,16.57
2019-01-16T13:29:26.746Z,16.47
2019-01-16T13:32:11.168Z,17.20
2019-01-16T13:34:55.785Z,16.50
2019-01-16T13:37:26.633Z,17.47
2019-01-16T13:39:55.236Z,16.77
2019-01-16T13:42:29.280Z,17.40
2019-01-16T13:45:06.349Z,17.73
2019-01-16T13:47:40.328Z,17.53
2019-01-16T13:50:28.334Z,18.13
2019-01-16T13:52:59.919Z,19.03
2019-01-16T13:55:30.821Z,17.80
2019-01-16T13:58:01.575Z,19.03
2019-01-16T14:00:35.386Z,18.70
2019-01-16T14:03:05.917Z,14.97
2019-01-16T14:05:46.004Z,13.63
2019-01-16T14:08:16.528Z,10.87
2019-01-16T14:10:47.050Z,10.63
2019-01-16T14:13:20.835Z,8.23
2019-01-16T14:15:54.428Z,7.73
2019-01-16T14:18:31.097Z,8.57
2019-01-16T14:20:59.059Z,4.43
2019-01-16T14:23:26.871Z,4.90
2019-01-16T14:25:54.628Z,4.40
2019-01-16T14:28:25.258Z,3.93
2019-01-16T14:30:55.847Z,3.97
2019-01-16T14:33:32.860Z,4.43
2019-01-16T14:36:17.330Z,3.87
2019-01-16T14:38:54.135Z,3.90
2019-01-16T14:41:38.005Z,4.20
2019-01-16T14:44:14.871Z,3.97
2019-01-16T14:46:48.900Z,4.07
2019-01-16T14:49:16.715Z,4.63
2019-01-16T14:51:44.612Z,4.47
2019-01-16T14:54:12.371Z,4.47
2019-01-16T14:56:42.899Z,4.87
2019-01-16T14:59:13.424Z,4.27
2019-01-16T15:01:51.961Z,5.40
2019-01-16T15:04:37.811Z,4.50
2019-01-16T15:07:15.307Z,4.43
2019-01-16T15:09:49.181Z,4.90
2019-01-16T15:12:22.997Z,4.43
2019-01-16T15:14:50.808Z,4.50
2019-01-16T15:17:30.558Z,4.40
2019-01-16T15:20:04.151Z,4.43
2019-01-16T15:22:34.664Z,4.80
2019-01-16T15:25:05.012Z,4.60
2019-01-16T15:27:42.022Z,4.50
2019-01-16T15:30:13.509Z,4.43
2019-01-16T15:32:41.288Z,4.77
2019-01-16T15:35:19.215Z,4.93
2019-01-16T15:37:47.003Z,4.63
2019-01-16T15:40:24.032Z,4.30
2019-01-16T15:43:07.500Z,4.47
2019-01-16T15:45:44.442Z,4.93
2019-01-16T15:48:21.132Z,3.63
2019-01-16T15:51:05.778Z,4.30
2019-01-16T15:53:33.571Z,4.60
2019-01-16T15:56:19.534Z,4.83
2019-01-16T15:58:50.254Z,5.07
2019-01-16T16:01:18.265Z,4.37
2019-01-16T16:03:46.040Z,6.23
2019-01-16T16:06:16.850Z,6.27
2019-01-16T16:08:56.962Z,6.83
2019-01-16T16:11:41.478Z,7.50
2019-01-16T16:14:18.149Z,7.13
2019-01-16T16:16:48.678Z,7.93
2019-01-16T16:19:28.829Z,6.90
2019-01-16T16:21:56.611Z,7.00
2019-01-16T16:24:24.378Z,7.50
2019-01-16T16:27:08.777Z,8.17
2019-01-16T16:29:39.634Z,8.33
2019-01-16T16:32:07.418Z,8.63
2019-01-16T16:34:35.246Z,8.17
2019-01-16T16:37:03.091Z,8.73
2019-01-16T16:39:30.844Z,8.20
2019-01-16T16:42:15.312Z,8.57
2019-01-16T16:44:44.276Z,8.30
2019-01-16T16:47:18.113Z,9.80
2019-01-16T16:49:48.861Z,9.97
2019-01-16T16:52:16.654Z,11.77
2019-01-16T16:54:56.498Z,10.67
2019-01-16T16:57:40.920Z,10.57
2019-01-16T17:00:15.009Z,10.93
2019-01-16T17:02:51.613Z,11.17
2019-01-16T17:05:19.493Z,10.57
2019-01-16T17:07:47.258Z,11.60
2019-01-16T17:10:15.045Z,12.30
2019-01-16T17:12:59.473Z,12.63
2019-01-16T17:15:33.338Z,13.13
2019-01-16T17:18:16.911Z,13.97
2019-01-16T17:20:44.740Z,15.23
2019-01-16T17:23:21.573Z,15.03
2019-01-16T17:25:52.542Z,16.30
2019-01-16T17:28:38.232Z,16.43
2019-01-16T17:31:06.052Z,18.93
2019-01-16T17:33:33.835Z,21.20
2019-01-16T17:36:01.587Z,24.20
2019-01-16T17:38:29.458Z,25.60
2019-01-16T17:41:11.999Z,25.73
2019-01-16T17:43:56.453Z,28.33
2019-01-16T17:46:28.269Z,27.23
2019-01-16T17:49:01.947Z,26.80
2019-01-16T17:51:29.740Z,27.03
2019-01-16T17:54:14.624Z,27.33
2019-01-16T17:56:45.402Z,26.43
2019-01-16T17:59:29.713Z,27.13
2019-01-16T18:02:00.247Z,26.40
2019-01-16T18:04:28.047Z,26.33
2019-01-16T18:06:58.353Z,28.90
2019-01-16T18:09:32.248Z,28.67
2019-01-16T18:12:12.026Z,27.47
2019-01-16T18:14:39.804Z,29.37
2019-01-16T18:17:13.804Z,28.93
2019-01-16T18:19:44.688Z,29.80
2019-01-16T18:22:12.519Z,28.27
2019-01-16T18:24:53.238Z,29.30
2019-01-16T18:27:35.813Z,28.67
2019-01-16T18:30:12.606Z,28.00
2019-01-16T18:32:40.504Z,29.07
2019-01-16T18:35:16.135Z,27.37
2019-01-16T18:37:46.767Z,28.13
2019-01-16T18:40:29.772Z,29.33
2019-01-16T18:43:14.382Z,27.77
2019-01-16T18:45:48.398Z,28.17
2019-01-16T18:48:17.083Z,28.43
2019-01-16T18:50:47.708Z,27.97
2019-01-16T18:53:15.499Z,27.30
2019-01-16T18:55:49.302Z,26.90
2019-01-16T18:58:19.958Z,25.13
2019-01-16T19:00:50.470Z,24.10
2019-01-16T19:03:24.091Z,23.93
2019-01-16T19:06:00.776Z,23.97
2019-01-16T19:08:45.356Z,23.73
2019-01-16T19:11:28.152Z,22.53
2019-01-16T19:14:14.169Z,23.73
2019-01-16T19:16:41.959Z,27.93
2019-01-16T19:19:24.866Z,23.93
2019-01-16T19:21:58.420Z,25.07
2019-01-16T19:24:33.735Z,24.07
2019-01-16T19:27:01.566Z,24.23
2019-01-16T19:29:38.361Z,22.70
2019-01-16T19:32:08.975Z,29.67
2019-01-16T19:34:39.784Z,27.70
2019-01-16T19:37:13.357Z,21.87
2019-01-16T19:39:58.213Z,24.30
2019-01-16T19:42:26.012Z,21.97
2019-01-16T19:45:08.805Z,22.10
2019-01-16T19:47:53.530Z,22.80
2019-01-16T19:50:24.810Z,22.60
2019-01-16T19:53:09.308Z,22.27
2019-01-16T19:55:53.923Z,20.20
2019-01-16T19:58:21.971Z,21.37
2019-01-16T20:00:55.682Z,20.07
2019-01-16T20:03:32.507Z,13.57
2019-01-16T20:06:00.417Z,9.30
2019-01-16T20:08:46.210Z,10.20
2019-01-16T20:11:22.895Z,8.60
2019-01-16T20:13:51.009Z,6.87
2019-01-16T20:16:24.203Z,7.50
2019-01-16T20:19:01.223Z,7.00
2019-01-16T20:21:29.156Z,5.80
2019-01-16T20:23:56.936Z,6.27
2019-01-16T20:26:41.552Z,5.73
2019-01-16T20:29:12.287Z,5.10
2019-01-16T20:31:45.838Z,5.53
2019-01-16T20:34:16.615Z,4.90
2019-01-16T20:36:44.445Z,5.10
2019-01-16T20:39:28.285Z,5.07
2019-01-16T20:41:56.136Z,4.87
2019-01-16T20:44:40.772Z,5.23
2019-01-16T20:47:13.466Z,5.70
2019-01-16T20:49:53.596Z,6.37
2019-01-16T20:52:28.246Z,6.53
2019-01-16T20:55:14.225Z,7.17
2019-01-16T20:57:59.488Z,7.33
2019-01-16T21:00:29.786Z,7.80
2019-01-16T21:02:57.589Z,8.03
2019-01-16T21:05:25.389Z,8.03
2019-01-16T21:07:53.186Z,8.93
2019-01-16T21:10:20.970Z,8.10
2019-01-16T21:13:04.167Z,7.87
2019-01-16T21:15:39.598Z,7.47
2019-01-16T21:18:07.368Z,10.67
2019-01-16T21:20:41.222Z,7.20
2019-01-16T21:23:24.023Z,6.97
2019-01-16T21:25:57.659Z,6.30
2019-01-16T21:28:32.622Z,6.17
2019-01-16T21:31:06.236Z,5.63
2019-01-16T21:33:37.068Z,5.87
2019-01-16T21:36:13.925Z,6.07
2019-01-16T21:38:58.370Z,6.23
2019-01-16T21:41:32.122Z,6.77
2019-01-16T21:44:02.451Z,8.00
2019-01-16T21:46:30.246Z,7.50
2019-01-16T21:49:01.064Z,8.10
2019-01-16T21:51:40.737Z,8.77
2019-01-16T21:54:09.310Z,10.57
2019-01-16T21:56:37.099Z,11.77
2019-01-16T21:59:10.678Z,12.13
2019-01-16T22:01:41.432Z,12.47
2019-01-16T22:04:09.231Z,12.60
2019-01-16T22:06:37.202Z,12.57
2019-01-16T22:09:16.134Z,13.70
2019-01-16T22:11:50.195Z,14.17
2019-01-16T22:14:30.107Z,13.27
2019-01-16T22:16:57.878Z,12.43
2019-01-16T22:19:28.713Z,10.97
2019-01-16T22:22:11.542Z,10.27
2019-01-16T22:24:54.395Z,9.93
2019-01-16T22:27:24.958Z,8.27
2019-01-16T22:29:55.752Z,8.37
2019-01-16T22:32:26.123Z,7.63
2019-01-16T22:34:53.902Z,7.73
2019-01-16T22:38:51.116Z,8.03
2019-01-16T22:41:35.516Z,6.40
2019-01-16T22:44:03.295Z,6.80
2019-01-16T22:46:31.057Z,6.80
2019-01-16T22:49:07.814Z,6.60
2019-01-16T22:51:41.400Z,6.63
2019-01-16T22:54:09.270Z,6.13
2019-01-16T22:56:46.661Z,5.43
2019-01-16T22:59:20.784Z,6.43
2019-01-16T23:02:06.721Z,5.90
2019-01-16T23:04:43.423Z,5.50
2019-01-16T23:07:13.973Z,5.30
2019-01-16T23:09:41.840Z,5.30
2019-01-16T23:12:26.143Z,5.10
2019-01-16T23:14:53.919Z,4.70
2019-01-16T23:17:21.690Z,4.80
2019-01-16T23:19:49.505Z,4.00
2019-01-16T23:22:32.606Z,5.00
2019-01-16T23:25:03.220Z,4.33
2019-01-16T23:27:47.523Z,3.70
2019-01-16T23:30:28.241Z,3.77
2019-01-16T23:33:11.070Z,4.80
2019-01-16T23:35:53.971Z,5.20
2019-01-16T23:38:31.160Z,5.40
2019-01-16T23:41:07.818Z,5.17
2019-01-16T23:43:52.460Z,5.47
2019-01-16T23:46:32.610Z,6.07
2019-01-16T23:49:17.409Z,5.13
2019-01-16T23:51:45.184Z,5.33
2019-01-16T23:54:29.680Z,4.83
2019-01-16T23:56:58.323Z,5.03
2019-01-16T23:59:35.019Z,4.97
